createdAt,value
2016-08-30T00:00:22.961Z,7.15
2016-08-30T00:01:17.740Z,7.09
2016-08-30T00:02:17.662Z,7.16
2016-08-30T00:03:16.909Z,7.29
2016-08-30T00:04:16.253Z,6.79
2016-08-30T00:05:18.221Z,6.51
2016-08-30T00:06:16.162Z,6.25
2016-08-30T00:07:16.153Z,6.14
2016-08-30T00:08:16.157Z,6.05
2016-08-30T00:09:16.124Z,5.96
2016-08-30T00:10:16.137Z,5.99
2016-08-30T00:11:16.113Z,5.99
2016-08-30T00:12:16.104Z,6.06
2016-08-30T00:13:16.082Z,6.01
2016-08-30T00:14:16.090Z,6.28
2016-08-30T00:15:16.092Z,6.4
2016-08-30T00:16:16.068Z,6.5
2016-08-30T00:17:16.079Z,6.55
2016-08-30T00:18:16.041Z,6.65
2016-08-30T00:19:16.044Z,6.58
2016-08-30T00:20:16.037Z,6.43
2016-08-30T00:21:16.025Z,6.4
2016-08-30T00:22:16.026Z,6.43
2016-08-30T00:23:16.016Z,6.38
2016-08-30T00:24:15.987Z,6.5
2016-08-30T00:25:16.693Z,6.68
2016-08-30T00:26:15.959Z,6.69
2016-08-30T00:27:15.958Z,6.83
2016-08-30T00:28:15.968Z,6.83
2016-08-30T00:29:15.958Z,6.99
2016-08-30T00:30:15.950Z,7
2016-08-30T00:31:15.926Z,6.94
2016-08-30T00:32:15.921Z,6.87
2016-08-30T00:33:15.923Z,6.55
2016-08-30T00:34:15.913Z,6.57
2016-08-30T00:35:15.900Z,6.5
2016-08-30T00:36:16.612Z,6.58
2016-08-30T00:37:15.878Z,6.63
2016-08-30T00:38:15.876Z,6.69
2016-08-30T00:39:15.859Z,6.53
2016-08-30T00:40:16.038Z,6.5
2016-08-30T00:41:16.550Z,6.43
2016-08-30T00:42:15.859Z,6.4
2016-08-30T00:43:15.851Z,6.24
2016-08-30T00:44:15.823Z,6.3
2016-08-30T00:45:15.815Z,6.33
2016-08-30T00:46:15.812Z,6.43
2016-08-30T00:47:15.794Z,6.35
2016-08-30T00:48:15.807Z,6.35
2016-08-30T00:49:15.785Z,6.36
2016-08-30T00:50:15.769Z,6.21
2016-08-30T00:51:15.747Z,6.19
2016-08-30T00:52:15.769Z,6.1
2016-08-30T00:53:15.764Z,5.99
2016-08-30T00:54:15.741Z,5.95
2016-08-30T00:55:16.083Z,5.92
2016-08-30T00:56:15.730Z,5.96
2016-08-30T00:57:15.699Z,6.02
2016-08-30T00:58:15.689Z,5.99
2016-08-30T00:59:15.692Z,6.02
2016-08-30T01:00:16.460Z,6.21
2016-08-30T01:01:15.652Z,6.17
2016-08-30T01:02:15.661Z,6.14
2016-08-30T01:03:15.655Z,6.25
2016-08-30T01:04:15.641Z,6.19
2016-08-30T01:05:15.645Z,6.08
2016-08-30T01:06:15.639Z,6.08
2016-08-30T01:07:15.621Z,6.24
2016-08-30T01:08:15.608Z,6.43
2016-08-30T01:09:16.305Z,6.48
2016-08-30T01:10:16.354Z,6.46
2016-08-30T01:11:15.579Z,6.39
2016-08-30T01:12:15.567Z,6.51
2016-08-30T01:13:15.567Z,6.53
2016-08-30T01:14:15.566Z,6.3
2016-08-30T01:15:16.103Z,6.02
2016-08-30T01:16:15.522Z,6.01
2016-08-30T01:17:15.500Z,6.11
2016-08-30T01:18:15.524Z,6.13
2016-08-30T01:19:15.493Z,6.25
2016-08-30T01:20:15.505Z,6.33
2016-08-30T01:21:15.482Z,6.4
2016-08-30T01:22:15.491Z,6.24
2016-08-30T01:23:15.478Z,6.2
2016-08-30T01:24:15.450Z,6.27
2016-08-30T01:25:15.720Z,6.32
2016-08-30T01:26:15.438Z,6.42
2016-08-30T01:27:15.431Z,6.65
2016-08-30T01:28:15.423Z,6.81
2016-08-30T01:29:15.424Z,7.01
2016-08-30T01:30:15.942Z,7.11
2016-08-30T01:31:15.414Z,7.01
2016-08-30T01:32:15.392Z,7
2016-08-30T01:33:15.365Z,6.89
2016-08-30T01:34:15.355Z,6.96
2016-08-30T01:35:15.384Z,6.94
2016-08-30T01:36:15.340Z,6.99
2016-08-30T01:37:15.364Z,7.09
2016-08-30T01:38:15.338Z,7.12
2016-08-30T01:39:15.331Z,7.09
2016-08-30T01:40:15.328Z,7.09
2016-08-30T01:41:15.318Z,7.07
2016-08-30T01:42:15.321Z,7.04
2016-08-30T01:43:15.295Z,7.16
2016-08-30T01:44:15.290Z,7.3
2016-08-30T01:45:15.286Z,7.29
2016-08-30T01:46:15.263Z,7.16
2016-08-30T01:47:15.261Z,7.12
2016-08-30T01:48:15.247Z,7.21
2016-08-30T01:49:15.268Z,7.14
2016-08-30T01:50:15.234Z,6.99
2016-08-30T01:51:15.238Z,6.93
2016-08-30T01:52:15.218Z,6.78
2016-08-30T01:53:15.201Z,6.73
2016-08-30T01:54:15.202Z,6.57
2016-08-30T01:55:15.219Z,6.51
2016-08-30T01:56:15.182Z,6.51
2016-08-30T01:57:15.186Z,6.39
2016-08-30T01:58:15.194Z,6.33
2016-08-30T01:59:15.159Z,6.43
2016-08-30T02:00:17.003Z,6.32
2016-08-30T02:01:15.149Z,6.38
2016-08-30T02:02:15.158Z,6.5
2016-08-30T02:03:15.145Z,6.54
2016-08-30T02:04:15.108Z,6.5
2016-08-30T02:05:15.132Z,6.58
2016-08-30T02:06:15.105Z,6.82
2016-08-30T02:07:15.095Z,7.01
2016-08-30T02:08:15.089Z,7.16
2016-08-30T02:09:15.096Z,7.34
2016-08-30T02:10:15.087Z,7.33
2016-08-30T02:11:15.091Z,7.48
2016-08-30T02:12:15.048Z,7.57
2016-08-30T02:13:15.048Z,7.37
2016-08-30T02:14:15.026Z,7.57
2016-08-30T02:15:15.771Z,7.71
2016-08-30T02:16:15.032Z,7.86
2016-08-30T02:17:15.035Z,7.73
2016-08-30T02:18:15.009Z,7.51
2016-08-30T02:19:15.013Z,7.45
2016-08-30T02:20:14.999Z,7.33
2016-08-30T02:21:14.982Z,7.29
2016-08-30T02:22:14.961Z,7.33
2016-08-30T02:23:14.982Z,7.27
2016-08-30T02:24:14.967Z,7.33
2016-08-30T02:25:14.941Z,7.39
2016-08-30T02:26:14.930Z,7.27
2016-08-30T02:27:14.930Z,7.23
2016-08-30T02:28:14.920Z,7.04
2016-08-30T02:29:14.909Z,6.86
2016-08-30T02:30:15.066Z,6.78
2016-08-30T02:31:14.910Z,6.79
2016-08-30T02:32:14.902Z,6.97
2016-08-30T02:33:14.900Z,7.29
2016-08-30T02:34:14.876Z,7.6
2016-08-30T02:35:14.885Z,7.81
2016-08-30T02:36:14.867Z,7.91
2016-08-30T02:37:14.874Z,8
2016-08-30T02:38:14.860Z,7.7
2016-08-30T02:39:14.831Z,7.52
2016-08-30T02:40:14.911Z,7.41
2016-08-30T02:41:14.823Z,7.41
2016-08-30T02:42:14.821Z,7.3
2016-08-30T02:43:14.834Z,7.29
2016-08-30T02:44:14.797Z,7.15
2016-08-30T02:45:14.791Z,7.07
2016-08-30T02:46:14.792Z,7.07
2016-08-30T02:47:14.781Z,7.12
2016-08-30T02:48:14.789Z,7.09
2016-08-30T02:49:14.764Z,7.09
2016-08-30T02:50:14.767Z,7.29
2016-08-30T02:51:14.753Z,7.39
2016-08-30T02:52:14.742Z,7.37
2016-08-30T02:53:14.749Z,7.41
2016-08-30T02:54:14.735Z,7.42
2016-08-30T02:55:14.725Z,7.33
2016-08-30T02:56:14.719Z,7.32
2016-08-30T02:57:14.685Z,7.42
2016-08-30T02:58:14.699Z,7.58
2016-08-30T02:59:14.689Z,7.52
2016-08-30T03:00:14.688Z,7.34
2016-08-30T03:01:14.649Z,7.52
2016-08-30T03:02:14.660Z,7.71
2016-08-30T03:03:14.665Z,7.85
2016-08-30T03:04:14.639Z,7.79
2016-08-30T03:05:14.660Z,7.91
2016-08-30T03:06:14.637Z,8
2016-08-30T03:07:14.612Z,8.04
2016-08-30T03:08:14.606Z,7.99
2016-08-30T03:09:14.608Z,8.09
2016-08-30T03:10:15.321Z,7.81
2016-08-30T03:11:14.590Z,7.79
2016-08-30T03:12:14.560Z,7.6
2016-08-30T03:13:14.585Z,7.47
2016-08-30T03:14:14.571Z,7.48
2016-08-30T03:15:14.942Z,7.36
2016-08-30T03:16:14.540Z,7.18
2016-08-30T03:17:14.547Z,6.99
2016-08-30T03:18:14.546Z,6.89
2016-08-30T03:19:14.507Z,6.93
2016-08-30T03:20:14.507Z,6.87
2016-08-30T03:21:14.512Z,6.93
2016-08-30T03:22:14.506Z,7.04
2016-08-30T03:23:14.472Z,6.99
2016-08-30T03:24:14.482Z,6.81
2016-08-30T03:25:14.473Z,6.72
2016-08-30T03:26:14.462Z,6.6
2016-08-30T03:27:14.468Z,6.63
2016-08-30T03:28:14.451Z,6.64
2016-08-30T03:29:14.428Z,6.54
2016-08-30T03:30:14.767Z,6.28
2016-08-30T03:31:14.432Z,6.24
2016-08-30T03:32:14.394Z,6.24
2016-08-30T03:33:14.418Z,6.28
2016-08-30T03:34:14.400Z,6.33
2016-08-30T03:35:15.079Z,6.48
2016-08-30T03:36:14.364Z,6.45
2016-08-30T03:37:14.353Z,6.72
2016-08-30T03:38:14.342Z,6.82
2016-08-30T03:39:14.353Z,6.99
2016-08-30T03:40:14.360Z,6.99
2016-08-30T03:41:14.333Z,7.21
2016-08-30T03:42:14.329Z,7.16
2016-08-30T03:43:14.301Z,7.14
2016-08-30T03:44:14.298Z,7.12
2016-08-30T03:45:14.298Z,7.19
2016-08-30T03:46:14.280Z,7.19
2016-08-30T03:47:14.287Z,7.14
2016-08-30T03:48:14.278Z,7.15
2016-08-30T03:49:14.265Z,7.26
2016-08-30T03:50:14.260Z,7.41
2016-08-30T03:51:14.250Z,7.55
2016-08-30T03:52:14.258Z,7.55
2016-08-30T03:53:14.245Z,7.42
2016-08-30T03:54:14.210Z,7.04
2016-08-30T03:55:14.207Z,6.93
2016-08-30T03:56:14.219Z,6.75
2016-08-30T03:57:14.199Z,6.72
2016-08-30T03:58:14.196Z,6.54
2016-08-30T03:59:14.181Z,6.35
2016-08-30T04:00:14.193Z,6.32
2016-08-30T04:01:14.158Z,6.2
2016-08-30T04:02:14.161Z,6.3
2016-08-30T04:03:14.132Z,6.35
2016-08-30T04:04:14.151Z,6.35
2016-08-30T04:05:14.148Z,6.43
2016-08-30T04:06:14.122Z,6.4
2016-08-30T04:07:14.112Z,6.33
2016-08-30T04:08:14.109Z,6.33
2016-08-30T04:09:14.121Z,6.25
2016-08-30T04:10:14.089Z,6.27
2016-08-30T04:11:14.074Z,6.21
2016-08-30T04:12:14.086Z,6.25
2016-08-30T04:13:14.052Z,6.17
2016-08-30T04:14:14.051Z,6.14
2016-08-30T04:15:14.046Z,6.17
2016-08-30T04:16:14.051Z,6.28
2016-08-30T04:17:14.042Z,6.32
2016-08-30T04:18:14.023Z,6.35
2016-08-30T04:19:14.018Z,6.4
2016-08-30T04:20:13.999Z,6.35
2016-08-30T04:21:14.007Z,6.27
2016-08-30T04:22:13.986Z,6.24
2016-08-30T04:23:13.952Z,6.05
2016-08-30T04:24:13.967Z,5.99
2016-08-30T04:25:13.988Z,6.02
2016-08-30T04:26:13.973Z,6.08
2016-08-30T04:27:13.935Z,6.27
2016-08-30T04:28:13.930Z,6.21
2016-08-30T04:29:13.929Z,6.42
2016-08-30T04:30:13.927Z,6.24
2016-08-30T04:31:13.909Z,6.08
2016-08-30T04:32:13.896Z,6.02
2016-08-30T04:33:13.866Z,5.98
2016-08-30T04:34:13.876Z,5.92
2016-08-30T04:35:13.869Z,5.87
2016-08-30T04:36:13.848Z,5.92
2016-08-30T04:37:13.858Z,5.85
2016-08-30T04:38:13.835Z,5.83
2016-08-30T04:39:13.829Z,5.8
2016-08-30T04:40:13.841Z,5.84
2016-08-30T04:41:13.816Z,5.83
2016-08-30T04:42:13.795Z,5.96
2016-08-30T04:43:13.810Z,5.96
2016-08-30T04:44:13.798Z,6.08
2016-08-30T04:45:13.782Z,6.06
2016-08-30T04:46:13.761Z,6.1
2016-08-30T04:47:13.753Z,6.02
2016-08-30T04:48:13.757Z,6.08
2016-08-30T04:49:13.720Z,6.08
2016-08-30T04:50:13.708Z,5.96
2016-08-30T04:51:13.734Z,5.92
2016-08-30T04:52:13.723Z,5.96
2016-08-30T04:53:13.698Z,5.98
2016-08-30T04:54:13.679Z,6.08
2016-08-30T04:55:13.684Z,5.99
2016-08-30T04:56:13.665Z,6.01
2016-08-30T04:57:13.670Z,5.98
2016-08-30T04:58:13.649Z,5.88
2016-08-30T04:59:13.638Z,5.95
2016-08-30T05:00:14.185Z,6.03
2016-08-30T05:01:13.616Z,5.98
2016-08-30T05:02:13.620Z,6.02
2016-08-30T05:03:13.596Z,6.08
2016-08-30T05:04:13.600Z,6.08
2016-08-30T05:05:13.564Z,6.06
2016-08-30T05:06:13.552Z,6.05
2016-08-30T05:07:13.566Z,6.13
2016-08-30T05:08:13.548Z,6.02
2016-08-30T05:09:13.534Z,6.14
2016-08-30T05:10:13.540Z,6.08
2016-08-30T05:11:13.550Z,6.08
2016-08-30T05:12:14.196Z,6.1
2016-08-30T05:13:13.499Z,6.21
2016-08-30T05:14:13.482Z,6.2
2016-08-30T05:15:13.481Z,6.1
2016-08-30T05:16:13.477Z,6.16
2016-08-30T05:17:13.451Z,6.08
2016-08-30T05:18:13.457Z,6.03
2016-08-30T05:19:13.432Z,6.05
2016-08-30T05:20:13.438Z,5.99
2016-08-30T05:21:13.443Z,6.03
2016-08-30T05:22:13.397Z,6.02
2016-08-30T05:23:13.401Z,6.17
2016-08-30T05:24:13.400Z,6.17
2016-08-30T05:25:13.389Z,6.21
2016-08-30T05:26:13.388Z,6.19
2016-08-30T05:27:13.370Z,6.13
2016-08-30T05:28:13.352Z,6.02
2016-08-30T05:29:13.346Z,6.03
2016-08-30T05:30:13.689Z,6.02
2016-08-30T05:31:13.330Z,5.8
2016-08-30T05:32:13.309Z,5.95
2016-08-30T05:33:13.300Z,5.99
2016-08-30T05:34:13.319Z,6.27
2016-08-30T05:35:13.293Z,6.06
2016-08-30T05:36:13.628Z,6.02
2016-08-30T05:37:14.211Z,5.87
2016-08-30T05:38:13.261Z,5.85
2016-08-30T05:39:13.242Z,5.96
2016-08-30T05:40:13.246Z,6.11
2016-08-30T05:41:13.221Z,6.2
2016-08-30T05:42:14.020Z,6.28
2016-08-30T05:43:13.192Z,6.32
2016-08-30T05:44:13.195Z,6.35
2016-08-30T05:45:13.184Z,6.39
2016-08-30T05:46:13.249Z,6.45
2016-08-30T05:47:13.151Z,6.53
2016-08-30T05:48:13.168Z,6.57
2016-08-30T05:49:13.156Z,6.33
2016-08-30T05:50:13.576Z,6.14
2016-08-30T05:51:13.138Z,6.17
2016-08-30T05:52:13.116Z,6.14
2016-08-30T05:53:13.104Z,6.17
2016-08-30T05:58:16.410Z,5.9
2016-08-30T05:59:16.954Z,5.93
2016-08-30T06:00:22.159Z,5.88
2016-08-30T06:01:36.109Z,6.08
2016-08-30T06:02:16.363Z,6.13
2016-08-30T06:03:16.328Z,6.11
2016-08-30T06:04:16.298Z,6.11
2016-08-30T06:05:17.052Z,6.21
2016-08-30T06:06:16.349Z,6.3
2016-08-30T06:07:16.870Z,6.35
2016-08-30T06:08:16.292Z,6.42
2016-08-30T06:09:16.315Z,6.5
2016-08-30T06:10:35.133Z,6.53
2016-08-30T06:11:16.255Z,6.5
2016-08-30T06:12:16.241Z,6.36
2016-08-30T06:13:16.239Z,6.38
2016-08-30T06:14:16.215Z,6.39
2016-08-30T06:15:21.134Z,6.42
2016-08-30T06:16:16.206Z,6.4
2016-08-30T06:17:16.220Z,6.43
2016-08-30T06:18:16.237Z,6.32
2016-08-30T06:19:16.464Z,6.32
2016-08-30T06:20:23.905Z,6.38
2016-08-30T06:21:16.143Z,6.35
2016-08-30T06:22:16.133Z,6.25
2016-08-30T06:23:16.820Z,6.25
2016-08-30T06:24:16.111Z,6.17
2016-08-30T06:25:16.114Z,6.14
2016-08-30T06:26:16.082Z,6.17
2016-08-30T06:27:16.098Z,6.16
2016-08-30T06:28:16.085Z,6.27
2016-08-30T06:29:16.065Z,6.28
2016-08-30T06:30:16.046Z,6.4
2016-08-30T06:31:16.047Z,6.38
2016-08-30T06:32:16.027Z,6.42
2016-08-30T06:33:16.043Z,6.43
2016-08-30T06:34:16.022Z,6.53
2016-08-30T06:35:15.980Z,6.61
2016-08-30T06:36:15.997Z,6.61
2016-08-30T06:37:15.993Z,6.82
2016-08-30T06:38:15.967Z,6.9
2016-08-30T06:39:15.953Z,6.86
2016-08-30T06:40:15.948Z,6.93
2016-08-30T06:41:15.952Z,6.87
2016-08-30T06:42:15.922Z,6.81
2016-08-30T06:43:15.927Z,6.89
2016-08-30T06:44:15.923Z,6.99
2016-08-30T06:45:16.637Z,7.01
2016-08-30T06:46:15.921Z,7
2016-08-30T06:47:15.889Z,7.05
2016-08-30T06:48:15.868Z,7.08
2016-08-30T06:49:15.873Z,7.11
2016-08-30T06:50:15.855Z,7.01
2016-08-30T06:51:15.871Z,7.08
2016-08-30T06:52:15.843Z,7.04
2016-08-30T06:53:15.842Z,6.97
2016-08-30T06:54:15.815Z,7.01
2016-08-30T06:55:15.791Z,6.96
2016-08-30T06:56:15.807Z,6.89
2016-08-30T06:57:15.787Z,6.86
2016-08-30T06:58:15.777Z,6.81
2016-08-30T06:59:15.785Z,6.72
2016-08-30T07:00:15.818Z,6.73
2016-08-30T07:01:15.748Z,6.82
2016-08-30T07:02:15.758Z,6.81
2016-08-30T07:03:15.730Z,6.61
2016-08-30T07:04:15.721Z,6.68
2016-08-30T07:05:15.710Z,6.76
2016-08-30T07:06:15.698Z,6.63
2016-08-30T07:07:15.698Z,6.69
2016-08-30T07:08:15.698Z,6.69
2016-08-30T07:09:15.679Z,6.75
2016-08-30T07:10:15.649Z,6.81
2016-08-30T07:11:15.663Z,6.96
2016-08-30T07:12:15.624Z,7.12
2016-08-30T07:13:15.627Z,7
2016-08-30T07:14:15.635Z,7
2016-08-30T07:15:16.658Z,7.15
2016-08-30T07:16:15.594Z,7.3
2016-08-30T07:17:15.606Z,7
2016-08-30T07:18:15.572Z,7.07
2016-08-30T07:19:16.212Z,7.3
2016-08-30T07:20:17.007Z,7.39
2016-08-30T07:21:15.584Z,7.69
2016-08-30T07:22:15.552Z,8
2016-08-30T07:23:15.593Z,8.2
2016-08-30T07:24:15.533Z,8
2016-08-30T07:25:17.011Z,7.91
2016-08-30T07:26:15.533Z,8
2016-08-30T07:27:15.501Z,8.12
2016-08-30T07:28:15.496Z,8.24
2016-08-30T07:29:15.479Z,8.13
2016-08-30T07:30:15.483Z,7.76
2016-08-30T07:31:15.518Z,8.07
2016-08-30T07:32:15.472Z,8.13
2016-08-30T07:33:15.433Z,8.45
2016-08-30T07:34:15.441Z,8.86
2016-08-30T07:35:16.157Z,9.37
2016-08-30T07:36:15.445Z,9.81
2016-08-30T07:37:15.394Z,10.02
2016-08-30T07:38:15.387Z,10.25
2016-08-30T07:39:15.379Z,10.52
2016-08-30T07:40:15.434Z,10.66
2016-08-30T07:41:15.388Z,10.91
2016-08-30T07:42:15.362Z,11.33
2016-08-30T07:43:15.366Z,11.08
2016-08-30T07:44:15.356Z,10.7
2016-08-30T07:45:15.347Z,9.67
2016-08-30T07:46:15.332Z,9.42
2016-08-30T07:47:15.342Z,9.38
2016-08-30T07:48:15.344Z,9.65
2016-08-30T07:49:15.324Z,9.77
2016-08-30T07:50:15.423Z,9.35
2016-08-30T07:51:15.301Z,9.26
2016-08-30T07:52:15.287Z,9.03
2016-08-30T07:53:15.270Z,8.7
2016-08-30T07:54:15.984Z,8.55
2016-08-30T07:55:15.317Z,8.7
2016-08-30T07:56:15.261Z,8.83
2016-08-30T07:57:15.250Z,9.24
2016-08-30T07:58:15.243Z,8.94
2016-08-30T07:59:15.252Z,9.06
2016-08-30T08:00:15.221Z,9.12
2016-08-30T08:01:15.222Z,8.82
2016-08-30T08:02:15.223Z,8.7
2016-08-30T08:03:15.207Z,8.57
2016-08-30T08:04:15.194Z,8.21
2016-08-30T08:05:15.193Z,7.88
2016-08-30T08:06:15.183Z,8.14
2016-08-30T08:07:15.168Z,8.31
2016-08-30T08:08:15.183Z,8.52
2016-08-30T08:09:15.157Z,8.12
2016-08-30T08:10:15.288Z,7.86
2016-08-30T08:11:15.135Z,7.26
2016-08-30T08:12:15.139Z,7.19
2016-08-30T08:13:15.127Z,7.41
2016-08-30T08:14:15.116Z,7.63
2016-08-30T08:15:15.096Z,7.76
2016-08-30T08:16:15.110Z,8.02
2016-08-30T08:17:15.104Z,8.03
2016-08-30T08:18:15.058Z,7.63
2016-08-30T08:19:15.062Z,7.26
2016-08-30T08:20:15.056Z,7.47
2016-08-30T08:21:15.052Z,7.45
2016-08-30T08:22:15.060Z,7.62
2016-08-30T08:23:15.035Z,7.94
2016-08-30T08:24:15.001Z,7.77
2016-08-30T08:25:15.032Z,7.44
2016-08-30T08:26:15.026Z,7.42
2016-08-30T08:27:14.986Z,7.33
2016-08-30T08:28:14.988Z,7.44
2016-08-30T08:29:14.971Z,7.6
2016-08-30T08:30:14.974Z,8.02
2016-08-30T08:31:14.939Z,8.25
2016-08-30T08:32:14.936Z,7.88
2016-08-30T08:33:14.948Z,8.02
2016-08-30T08:34:14.945Z,8.17
2016-08-30T08:35:14.931Z,8.13
2016-08-30T08:36:14.899Z,8.45
2016-08-30T08:37:14.909Z,8.49
2016-08-30T08:38:14.886Z,8.43
2016-08-30T08:39:14.885Z,8.12
2016-08-30T08:40:16.298Z,7.85
2016-08-30T08:42:30.411Z,7.29
2016-08-30T08:42:39.068Z,7.41
2016-08-30T08:43:39.008Z,7.66
2016-08-30T08:44:40.386Z,7.81
2016-08-30T08:45:40.038Z,8.17
2016-08-30T08:46:38.997Z,8.28
2016-08-30T08:47:39.774Z,8.37
2016-08-30T08:48:38.975Z,8.31
2016-08-30T08:49:39.104Z,8.25
2016-08-30T08:50:38.949Z,8.32
2016-08-30T08:51:39.041Z,8.71
2016-08-30T08:52:39.627Z,9.1
2016-08-30T08:53:38.930Z,9.24
2016-08-30T08:54:39.606Z,9.77
2016-08-30T08:55:38.921Z,9.99
2016-08-30T08:56:38.921Z,9.89
2016-08-30T08:57:38.884Z,9.85
2016-08-30T08:58:38.917Z,9.7
2016-08-30T08:59:38.991Z,9.8
2016-08-30T09:00:39.099Z,9.89
2016-08-30T09:01:39.563Z,9.91
2016-08-30T09:02:38.852Z,9.68
2016-08-30T09:03:38.844Z,9.62
2016-08-30T09:04:38.845Z,9.5
2016-08-30T09:05:38.851Z,9.2
2016-08-30T09:06:38.871Z,8.93
2016-08-30T09:07:38.819Z,8.71
2016-08-30T09:08:38.804Z,8.65
2016-08-30T09:09:38.948Z,8.49
2016-08-30T09:10:38.779Z,8.61
2016-08-30T09:11:38.801Z,8.57
2016-08-30T09:12:38.786Z,8.93
2016-08-30T09:20:45.522Z,9.83
2016-08-30T09:21:45.545Z,9.71
2016-08-30T09:22:46.182Z,8.97
2016-08-30T09:23:45.480Z,8.52
2016-08-30T09:24:45.491Z,8.5
2016-08-30T09:25:45.480Z,8.4
2016-08-30T09:26:45.475Z,8.68
2016-08-30T09:27:45.457Z,9.1
2016-08-30T09:28:45.442Z,8.97
2016-08-30T09:29:45.434Z,8.58
2016-08-30T09:30:45.419Z,9
2016-08-30T09:31:45.572Z,9.34
2016-08-30T09:32:45.410Z,8.29
2016-08-30T09:33:45.375Z,7.86
2016-08-30T09:34:45.380Z,7.99
2016-08-30T09:35:46.034Z,8.03
2016-08-30T09:36:45.350Z,8.34
2016-08-30T09:37:45.368Z,8.42
2016-08-30T09:38:45.359Z,8.58
2016-08-30T09:39:45.341Z,8.57
2016-08-30T09:40:45.335Z,8.29
2016-08-30T09:41:45.329Z,8.31
2016-08-30T09:42:45.295Z,8.68
2016-08-30T09:43:45.316Z,9
2016-08-30T09:44:45.305Z,8.96
2016-08-30T09:45:45.300Z,9
2016-08-30T09:46:45.295Z,8.42
2016-08-30T09:47:45.277Z,8.63
2016-08-30T09:48:45.265Z,9
2016-08-30T09:49:45.248Z,9.4
2016-08-30T09:50:45.260Z,9.26
2016-08-30T09:51:45.232Z,9.31
2016-08-30T09:52:45.238Z,9.6
2016-08-30T09:53:45.229Z,9.62
2016-08-30T09:54:45.206Z,10.14
2016-08-30T09:55:45.214Z,10.55
2016-08-30T09:56:45.212Z,11.6
2016-08-30T09:57:45.182Z,11.54
2016-08-30T09:58:45.188Z,11.6
2016-08-30T09:59:45.157Z,11.57
2016-08-30T10:00:45.146Z,11.75
2016-08-30T10:01:45.159Z,12.25
2016-08-30T10:02:45.159Z,12.43
2016-08-30T10:03:45.145Z,12.56
2016-08-30T10:04:45.145Z,12.62
2016-08-30T10:05:45.139Z,12.41
2016-08-30T10:06:45.129Z,11.9
2016-08-30T10:07:45.117Z,10.24
2016-08-30T10:08:45.089Z,9.62
2016-08-30T10:09:45.096Z,9
2016-08-30T10:10:45.082Z,9.08
2016-08-30T10:11:45.079Z,9.38
2016-08-30T10:12:45.760Z,9.93
2016-08-30T10:13:45.068Z,10.14
2016-08-30T10:14:45.075Z,9.98
2016-08-30T10:15:45.082Z,10.22
2016-08-30T10:16:45.046Z,10.54
2016-08-30T10:17:45.028Z,10.55
2016-08-30T10:18:45.046Z,10.13
2016-08-30T10:19:45.045Z,10.1
2016-08-30T10:20:45.034Z,9.75
2016-08-30T10:21:45.011Z,10.11
2016-08-30T10:22:45.009Z,10.63
2016-08-30T10:23:45.015Z,11.12
2016-08-30T10:24:44.994Z,10.76
2016-08-30T10:25:44.985Z,10.55
2016-08-30T10:26:44.998Z,10.2
2016-08-30T10:27:44.980Z,10.34
2016-08-30T10:28:44.945Z,10.39
2016-08-30T10:29:44.943Z,10.55
2016-08-30T10:30:44.955Z,10.47
2016-08-30T10:31:44.928Z,10.65
2016-08-30T10:32:44.930Z,11.42
2016-08-30T10:33:44.928Z,11.94
2016-08-30T10:34:44.902Z,11.93
2016-08-30T10:35:45.625Z,11.78
2016-08-30T10:36:44.884Z,11.94
2016-08-30T10:37:44.886Z,11.79
2016-08-30T10:38:44.875Z,11.69
2016-08-30T10:39:44.902Z,11.42
2016-08-30T10:40:44.878Z,11.31
2016-08-30T10:41:44.866Z,11.16
2016-08-30T10:42:44.867Z,11.09
2016-08-30T10:43:44.872Z,11.26
2016-08-30T10:44:44.869Z,11.12
2016-08-30T10:45:44.838Z,11.12
2016-08-30T10:46:44.844Z,11.16
2016-08-30T10:47:44.833Z,10.65
2016-08-30T10:48:44.827Z,10.88
2016-08-30T10:49:44.811Z,11.2
2016-08-30T10:50:44.803Z,11.42
2016-08-30T10:51:44.777Z,11.67
2016-08-30T10:52:44.781Z,11.64
2016-08-30T10:53:44.781Z,11.88
2016-08-30T10:54:44.766Z,12.01
2016-08-30T10:55:44.775Z,11.75
2016-08-30T10:56:44.762Z,11.87
2016-08-30T10:57:44.746Z,11.84
2016-08-30T10:58:44.733Z,11.82
2016-08-30T10:59:44.761Z,12.08
2016-08-30T11:00:44.726Z,12.61
2016-08-30T11:01:44.731Z,13.13
2016-08-30T11:02:44.704Z,13.31
2016-08-30T11:03:44.718Z,13.06
2016-08-30T11:04:44.721Z,12.95
2016-08-30T11:05:44.709Z,12.7
2016-08-30T11:06:44.707Z,13.01
2016-08-30T11:07:44.699Z,12.94
2016-08-30T11:08:44.678Z,12.94
2016-08-30T11:09:44.685Z,13.04
2016-08-30T11:10:44.667Z,13.17
2016-08-30T11:11:44.664Z,13.27
2016-08-30T11:12:44.654Z,13.54
2016-08-30T11:13:44.632Z,12.73
2016-08-30T11:14:44.641Z,12.69
2016-08-30T11:15:44.637Z,12.51
2016-08-30T11:16:44.631Z,12.3
2016-08-30T11:17:44.630Z,11.82
2016-08-30T11:18:44.611Z,12.05
2016-08-30T11:19:44.618Z,11.9
2016-08-30T11:20:44.632Z,11.75
2016-08-30T11:21:44.618Z,12.29
2016-08-30T11:22:44.596Z,12.88
2016-08-30T11:23:44.583Z,13.09
2016-08-30T11:24:44.584Z,13.28
2016-08-30T11:25:44.600Z,12.91
2016-08-30T11:26:44.577Z,12.74
2016-08-30T11:27:44.573Z,12.96
2016-08-30T11:28:44.569Z,12.76
2016-08-30T11:29:44.569Z,12.79
2016-08-30T11:30:44.552Z,12.58
2016-08-30T11:31:44.933Z,12.71
2016-08-30T11:32:44.543Z,12.49
2016-08-30T11:33:44.533Z,12.41
2016-08-30T11:34:44.526Z,12.4
2016-08-30T11:35:44.530Z,12.66
2016-08-30T11:36:44.523Z,12.92
2016-08-30T11:37:44.527Z,12.63
2016-08-30T11:38:44.524Z,12.62
2016-08-30T11:39:44.484Z,12.59
2016-08-30T11:40:44.497Z,12.56
2016-08-30T11:41:44.495Z,12.37
2016-08-30T11:42:44.482Z,12.15
2016-08-30T11:43:44.471Z,12.01
2016-08-30T11:44:44.474Z,12.41
2016-08-30T11:45:44.476Z,12.96
2016-08-30T11:46:44.468Z,12.91
2016-08-30T11:47:44.466Z,12.88
2016-08-30T11:48:44.461Z,12.67
2016-08-30T11:49:44.445Z,12.31
2016-08-30T11:50:44.423Z,12.34
2016-08-30T11:51:44.426Z,12.31
2016-08-30T11:52:44.432Z,12.31
2016-08-30T11:53:44.424Z,12.23
2016-08-30T11:54:44.401Z,12.31
2016-08-30T11:55:44.414Z,12.62
2016-08-30T11:56:44.410Z,12.66
2016-08-30T11:57:44.390Z,12.56
2016-08-30T11:58:44.407Z,12.49
2016-08-30T11:59:44.383Z,12.18
2016-08-30T12:00:44.379Z,12.26
2016-08-30T12:01:44.372Z,12.16
2016-08-30T12:02:44.385Z,12.18
2016-08-30T12:03:44.357Z,12.38
2016-08-30T12:04:44.349Z,12.4
2016-08-30T12:05:44.347Z,12.13
2016-08-30T12:06:44.357Z,12.01
2016-08-30T12:07:44.330Z,11.85
2016-08-30T12:08:44.322Z,11.84
2016-08-30T12:09:44.327Z,11.69
2016-08-30T12:10:44.310Z,11.67
2016-08-30T12:11:44.321Z,11.75
2016-08-30T12:12:44.302Z,12.03
2016-08-30T12:13:44.283Z,11.93
2016-08-30T12:14:44.296Z,11.85
2016-08-30T12:15:44.270Z,11.82
2016-08-30T12:16:44.272Z,11.53
2016-08-30T12:17:44.278Z,11.48
2016-08-30T12:18:44.291Z,11.24
2016-08-30T12:19:44.263Z,10.9
2016-08-30T12:20:44.241Z,10.86
2016-08-30T12:21:44.250Z,10.25
2016-08-30T12:22:44.250Z,9.75
2016-08-30T12:23:44.256Z,9.55
2016-08-30T12:24:44.238Z,9.95
2016-08-30T12:25:44.226Z,10.57
2016-08-30T12:26:44.208Z,10.86
2016-08-30T12:27:44.204Z,10.94
2016-08-30T12:28:44.199Z,11.75
2016-08-30T12:29:44.192Z,11.98
2016-08-30T12:30:44.227Z,12
2016-08-30T12:31:44.186Z,12.16
2016-08-30T12:32:44.213Z,12.26
2016-08-30T12:33:44.202Z,12.44
2016-08-30T12:34:44.184Z,12.37
2016-08-30T12:35:44.171Z,12.92
2016-08-30T12:36:44.160Z,13.04
2016-08-30T12:37:44.157Z,13.68
2016-08-30T12:38:44.166Z,14.04
2016-08-30T12:39:44.160Z,14.49
2016-08-30T12:40:44.147Z,15.23
2016-08-30T12:41:44.125Z,16.11
2016-08-30T12:42:44.111Z,16.42
2016-08-30T12:43:44.121Z,16.22
2016-08-30T12:44:44.118Z,16.25
2016-08-30T12:45:44.128Z,16.48
2016-08-30T12:46:44.102Z,16.84
2016-08-30T12:47:44.085Z,16.63
2016-08-30T12:48:44.102Z,16.13
2016-08-30T12:49:44.099Z,15.68
2016-08-30T12:50:44.074Z,15.25
2016-08-30T12:51:44.097Z,14.72
2016-08-30T12:52:44.083Z,14.71
2016-08-30T12:53:44.067Z,14.29
2016-08-30T12:54:44.073Z,13.99
2016-08-30T12:55:44.086Z,14.01
2016-08-30T12:56:44.039Z,13.68
2016-08-30T12:57:44.053Z,13.04
2016-08-30T12:58:44.033Z,13.17
2016-08-30T12:59:44.038Z,13.62
2016-08-30T13:00:44.049Z,13.53
2016-08-30T13:01:44.025Z,13.38
2016-08-30T13:02:44.010Z,13.41
2016-08-30T13:03:44.028Z,13.07
2016-08-30T13:04:44.029Z,13.07
2016-08-30T13:05:44.025Z,13.25
2016-08-30T13:06:44.020Z,13.57
2016-08-30T13:07:44.014Z,13.63
2016-08-30T13:08:43.996Z,14.36
2016-08-30T13:09:44.007Z,14.8
2016-08-30T13:10:44.010Z,15.2
2016-08-30T13:11:43.964Z,16.16
2016-08-30T13:12:43.993Z,15.77
2016-08-30T13:13:43.977Z,14.91
2016-08-30T13:14:44.674Z,14.54
2016-08-30T13:15:43.965Z,14.3
2016-08-30T13:16:43.945Z,13.87
2016-08-30T13:17:43.952Z,13.76
2016-08-30T13:18:43.957Z,14.36
2016-08-30T13:19:43.951Z,14.72
2016-08-30T13:20:43.949Z,14.78
2016-08-30T13:21:43.964Z,14.66
2016-08-30T13:22:43.937Z,15.22
2016-08-30T13:23:43.927Z,15.38
2016-08-30T13:24:43.916Z,15.68
2016-08-30T13:25:43.918Z,15.25
2016-08-30T13:26:43.929Z,15.76